sensor_id;sensor_type;location;lat;lon;timestamp;P1;durP1;ratioP1;P2;durP2;ratioP2
18499;SDS011;9379;52.134;11.576;2022-09-09T00:00:17;3.33;;;3.13;;
18499;SDS011;9379;52.134;11.576;2022-09-09T00:02:48;4.10;;;2.92;;
18499;SDS011;9379;52.134;11.576;2022-09-09T00:05:23;3.80;;;3.50;;
18499;SDS011;9379;52.134;11.576;2022-09-09T00:07:58;3.65;;;3.33;;
18499;SDS011;9379;52.134;11.576;2022-09-09T00:10:29;3.55;;;3.25;;
18499;SDS011;9379;52.134;11.576;2022-09-09T00:13:01;4.22;;;3.83;;
18499;SDS011;9379;52.134;11.576;2022-09-09T00:15:37;3.10;;;2.80;;
18499;SDS011;9379;52.134;11.576;2022-09-09T00:18:11;3.00;;;2.80;;
18499;SDS011;9379;52.134;11.576;2022-09-09T00:20:45;5.63;;;3.85;;
18499;SDS011;9379;52.134;11.576;2022-09-09T00:23:23;4.32;;;3.60;;
18499;SDS011;9379;52.134;11.576;2022-09-09T00:25:54;4.05;;;3.38;;
18499;SDS011;9379;52.134;11.576;2022-09-09T00:28:32;4.03;;;2.88;;
18499;SDS011;9379;52.134;11.576;2022-09-09T00:31:07;2.85;;;2.65;;
18499;SDS011;9379;52.134;11.576;2022-09-09T00:33:38;3.20;;;2.90;;
18499;SDS011;9379;52.134;11.576;2022-09-09T00:36:09;2.40;;;2.20;;
18499;SDS011;9379;52.134;11.576;2022-09-09T00:38:43;2.42;;;2.15;;
18499;SDS011;9379;52.134;11.576;2022-09-09T00:41:14;4.05;;;2.00;;
18499;SDS011;9379;52.134;11.576;2022-09-09T00:43:46;3.33;;;2.53;;
18499;SDS011;9379;52.134;11.576;2022-09-09T00:46:40;3.83;;;2.55;;
18499;SDS011;9379;52.134;11.576;2022-09-09T00:49:15;2.40;;;2.20;;
18499;SDS011;9379;52.134;11.576;2022-09-09T00:51:55;5.97;;;1.98;;
18499;SDS011;9379;52.134;11.576;2022-09-09T00:54:35;3.42;;;2.95;;
18499;SDS011;9379;52.134;11.576;2022-09-09T00:57:13;2.28;;;1.92;;
18499;SDS011;9379;52.134;11.576;2022-09-09T00:59:50;2.80;;;2.00;;
18499;SDS011;9379;52.134;11.576;2022-09-09T01:02:22;2.45;;;2.25;;
18499;SDS011;9379;52.134;11.576;2022-09-09T01:04:54;2.15;;;2.05;;
18499;SDS011;9379;52.134;11.576;2022-09-09T01:07:26;2.00;;;1.88;;
18499;SDS011;9379;52.134;11.576;2022-09-09T01:09:55;3.58;;;3.05;;
18499;SDS011;9379;52.134;11.576;2022-09-09T01:12:24;2.38;;;2.13;;
18499;SDS011;9379;52.134;11.576;2022-09-09T01:15:03;4.68;;;2.05;;
18499;SDS011;9379;52.134;11.576;2022-09-09T01:17:44;1.52;;;1.42;;
18499;SDS011;9379;52.134;11.576;2022-09-09T01:20:17;3.90;;;1.90;;
18499;SDS011;9379;52.134;11.576;2022-09-09T01:22:54;1.75;;;1.65;;
18499;SDS011;9379;52.134;11.576;2022-09-09T01:28:35;1.65;;;1.55;;
18499;SDS011;9379;52.134;11.576;2022-09-09T01:31:03;1.80;;;1.67;;
18499;SDS011;9379;52.134;11.576;2022-09-09T01:33:32;2.45;;;1.48;;
18499;SDS011;9379;52.134;11.576;2022-09-09T01:35:59;1.65;;;1.40;;
18499;SDS011;9379;52.134;11.576;2022-09-09T01:38:30;2.25;;;1.67;;
18499;SDS011;9379;52.134;11.576;2022-09-09T01:40:59;1.30;;;1.20;;
18499;SDS011;9379;52.134;11.576;2022-09-09T01:43:27;1.50;;;1.40;;
18499;SDS011;9379;52.134;11.576;2022-09-09T01:45:56;2.05;;;1.40;;
18499;SDS011;9379;52.134;11.576;2022-09-09T01:48:26;3.67;;;1.35;;
18499;SDS011;9379;52.134;11.576;2022-09-09T01:50:54;1.90;;;1.65;;
18499;SDS011;9379;52.134;11.576;2022-09-09T01:53:21;1.75;;;1.48;;
18499;SDS011;9379;52.134;11.576;2022-09-09T01:55:49;1.67;;;1.58;;
18499;SDS011;9379;52.134;11.576;2022-09-09T01:58:31;3.35;;;1.13;;
18499;SDS011;9379;52.134;11.576;2022-09-09T02:01:06;1.48;;;1.30;;
18499;SDS011;9379;52.134;11.576;2022-09-09T02:03:40;1.38;;;1.27;;
18499;SDS011;9379;52.134;11.576;2022-09-09T02:06:14;0.90;;;0.90;;
18499;SDS011;9379;52.134;11.576;2022-09-09T02:08:48;0.80;;;0.80;;
18499;SDS011;9379;52.134;11.576;2022-09-09T02:11:16;4.78;;;1.33;;
18499;SDS011;9379;52.134;11.576;2022-09-09T02:13:46;3.05;;;2.10;;
18499;SDS011;9379;52.134;11.576;2022-09-09T02:16:16;1.23;;;1.23;;
18499;SDS011;9379;52.134;11.576;2022-09-09T02:18:53;1.30;;;1.00;;
18499;SDS011;9379;52.134;11.576;2022-09-09T02:21:24;1.90;;;1.38;;
18499;SDS011;9379;52.134;11.576;2022-09-09T02:23:53;3.70;;;1.33;;
18499;SDS011;9379;52.134;11.576;2022-09-09T02:26:27;1.35;;;1.25;;
18499;SDS011;9379;52.134;11.576;2022-09-09T02:28:57;3.80;;;1.15;;
18499;SDS011;9379;52.134;11.576;2022-09-09T02:31:46;1.15;;;1.05;;
18499;SDS011;9379;52.134;11.576;2022-09-09T02:34:16;1.25;;;1.05;;
18499;SDS011;9379;52.134;11.576;2022-09-09T02:36:55;1.25;;;1.17;;
18499;SDS011;9379;52.134;11.576;2022-09-09T02:39:29;5.50;;;1.90;;
18499;SDS011;9379;52.134;11.576;2022-09-09T02:41:56;1.75;;;1.13;;
18499;SDS011;9379;52.134;11.576;2022-09-09T02:44:24;2.63;;;1.50;;
18499;SDS011;9379;52.134;11.576;2022-09-09T02:46:55;2.05;;;1.70;;
18499;SDS011;9379;52.134;11.576;2022-09-09T02:49:36;1.10;;;1.00;;
18499;SDS011;9379;52.134;11.576;2022-09-09T02:52:12;1.08;;;0.90;;
18499;SDS011;9379;52.134;11.576;2022-09-09T02:54:43;1.35;;;1.33;;
18499;SDS011;9379;52.134;11.576;2022-09-09T02:57:12;1.45;;;1.15;;
18499;SDS011;9379;52.134;11.576;2022-09-09T02:59:46;1.67;;;1.10;;
18499;SDS011;9379;52.134;11.576;2022-09-09T03:02:13;1.20;;;1.10;;
18499;SDS011;9379;52.134;11.576;2022-09-09T03:07:30;1.10;;;1.10;;
18499;SDS011;9379;52.134;11.576;2022-09-09T03:09:57;1.88;;;1.77;;
18499;SDS011;9379;52.134;11.576;2022-09-09T03:12:26;1.10;;;0.95;;
18499;SDS011;9379;52.134;11.576;2022-09-09T03:14:54;1.33;;;0.90;;
18499;SDS011;9379;52.134;11.576;2022-09-09T03:17:30;1.38;;;1.27;;
18499;SDS011;9379;52.134;11.576;2022-09-09T03:19:57;1.33;;;1.20;;
18499;SDS011;9379;52.134;11.576;2022-09-09T03:22:26;1.60;;;1.50;;
18499;SDS011;9379;52.134;11.576;2022-09-09T03:24:55;1.77;;;1.67;;
18499;SDS011;9379;52.134;11.576;2022-09-09T03:27:36;1.90;;;1.80;;
18499;SDS011;9379;52.134;11.576;2022-09-09T03:30:09;1.63;;;1.52;;
18499;SDS011;9379;52.134;11.576;2022-09-09T03:32:36;1.45;;;1.35;;
18499;SDS011;9379;52.134;11.576;2022-09-09T03:35:04;1.77;;;1.50;;
18499;SDS011;9379;52.134;11.576;2022-09-09T03:37:39;1.00;;;1.00;;
18499;SDS011;9379;52.134;11.576;2022-09-09T03:40:07;1.55;;;1.45;;
18499;SDS011;9379;52.134;11.576;2022-09-09T03:42:36;1.30;;;1.20;;
18499;SDS011;9379;52.134;11.576;2022-09-09T03:45:04;2.50;;;1.23;;
18499;SDS011;9379;52.134;11.576;2022-09-09T03:47:37;1.88;;;1.45;;
18499;SDS011;9379;52.134;11.576;2022-09-09T03:50:10;1.55;;;1.45;;
18499;SDS011;9379;52.134;11.576;2022-09-09T03:52:43;2.00;;;1.60;;
18499;SDS011;9379;52.134;11.576;2022-09-09T03:55:11;2.83;;;1.48;;
18499;SDS011;9379;52.134;11.576;2022-09-09T03:57:40;1.50;;;1.40;;
18499;SDS011;9379;52.134;11.576;2022-09-09T04:35:34;1.60;;;1.50;;
18499;SDS011;9379;52.134;11.576;2022-09-09T04:38:08;4.85;;;3.33;;
18499;SDS011;9379;52.134;11.576;2022-09-09T04:40:35;2.60;;;1.90;;
18499;SDS011;9379;52.134;11.576;2022-09-09T04:43:12;1.80;;;1.70;;
18499;SDS011;9379;52.134;11.576;2022-09-09T04:45:46;2.30;;;1.75;;
18499;SDS011;9379;52.134;11.576;2022-09-09T04:48:20;1.95;;;1.55;;
18499;SDS011;9379;52.134;11.576;2022-09-09T04:50:54;1.80;;;1.70;;
18499;SDS011;9379;52.134;11.576;2022-09-09T04:53:25;1.83;;;1.73;;
18499;SDS011;9379;52.134;11.576;2022-09-09T04:56:02;4.75;;;2.00;;
18499;SDS011;9379;52.134;11.576;2022-09-09T04:58:31;2.75;;;1.52;;
18499;SDS011;9379;52.134;11.576;2022-09-09T05:01:05;1.30;;;1.20;;
18499;SDS011;9379;52.134;11.576;2022-09-09T05:03:39;1.73;;;1.63;;
18499;SDS011;9379;52.134;11.576;2022-09-09T05:06:10;3.25;;;2.03;;
18499;SDS011;9379;52.134;11.576;2022-09-09T05:08:44;1.92;;;1.73;;
18499;SDS011;9379;52.134;11.576;2022-09-09T05:11:16;1.63;;;1.52;;
18499;SDS011;9379;52.134;11.576;2022-09-09T05:13:45;2.45;;;1.65;;
18499;SDS011;9379;52.134;11.576;2022-09-09T05:16:13;1.20;;;1.15;;
18499;SDS011;9379;52.134;11.576;2022-09-09T05:18:42;2.42;;;1.50;;
18499;SDS011;9379;52.134;11.576;2022-09-09T05:21:11;6.15;;;1.42;;
18499;SDS011;9379;52.134;11.576;2022-09-09T05:23:39;2.58;;;1.60;;
18499;SDS011;9379;52.134;11.576;2022-09-09T05:26:06;2.03;;;1.25;;
18499;SDS011;9379;52.134;11.576;2022-09-09T05:28:35;1.70;;;1.60;;
18499;SDS011;9379;52.134;11.576;2022-09-09T05:31:03;1.02;;;0.90;;
18499;SDS011;9379;52.134;11.576;2022-09-09T05:33:33;1.33;;;1.20;;
18499;SDS011;9379;52.134;11.576;2022-09-09T05:36:03;1.77;;;1.10;;
18499;SDS011;9379;52.134;11.576;2022-09-09T05:38:33;3.63;;;1.38;;
18499;SDS011;9379;52.134;11.576;2022-09-09T05:41:01;4.10;;;2.50;;
18499;SDS011;9379;52.134;11.576;2022-09-09T05:43:29;1.48;;;1.25;;
18499;SDS011;9379;52.134;11.576;2022-09-09T05:46:00;1.48;;;1.20;;
18499;SDS011;9379;52.134;11.576;2022-09-09T05:48:29;1.55;;;1.45;;
18499;SDS011;9379;52.134;11.576;2022-09-09T05:50:57;1.42;;;1.33;;
18499;SDS011;9379;52.134;11.576;2022-09-09T05:53:26;1.38;;;1.27;;
18499;SDS011;9379;52.134;11.576;2022-09-09T05:56:00;2.22;;;1.20;;
18499;SDS011;9379;52.134;11.576;2022-09-09T05:58:29;1.80;;;1.70;;
18499;SDS011;9379;52.134;11.576;2022-09-09T06:01:00;2.05;;;1.17;;
18499;SDS011;9379;52.134;11.576;2022-09-09T06:03:28;2.03;;;1.48;;
18499;SDS011;9379;52.134;11.576;2022-09-09T06:05:58;2.53;;;1.95;;
18499;SDS011;9379;52.134;11.576;2022-09-09T06:08:28;2.38;;;1.80;;
18499;SDS011;9379;52.134;11.576;2022-09-09T06:11:00;1.67;;;1.48;;
18499;SDS011;9379;52.134;11.576;2022-09-09T06:13:28;1.52;;;1.42;;
18499;SDS011;9379;52.134;11.576;2022-09-09T06:15:55;2.65;;;1.48;;
18499;SDS011;9379;52.134;11.576;2022-09-09T06:18:23;8.48;;;2.08;;
18499;SDS011;9379;52.134;11.576;2022-09-09T06:20:54;2.92;;;1.90;;
18499;SDS011;9379;52.134;11.576;2022-09-09T06:23:23;2.67;;;1.40;;
18499;SDS011;9379;52.134;11.576;2022-09-09T06:25:59;3.35;;;1.50;;
18499;SDS011;9379;52.134;11.576;2022-09-09T06:28:28;4.20;;;1.50;;
18499;SDS011;9379;52.134;11.576;2022-09-09T06:30:59;2.08;;;1.70;;
18499;SDS011;9379;52.134;11.576;2022-09-09T06:33:38;1.17;;;1.08;;
18499;SDS011;9379;52.134;11.576;2022-09-09T06:36:07;1.85;;;1.50;;
18499;SDS011;9379;52.134;11.576;2022-09-09T06:38:40;1.83;;;1.52;;
18499;SDS011;9379;52.134;11.576;2022-09-09T06:41:09;1.27;;;1.17;;
18499;SDS011;9379;52.134;11.576;2022-09-09T06:43:37;3.10;;;1.55;;
18499;SDS011;9379;52.134;11.576;2022-09-09T06:46:05;2.83;;;1.88;;
18499;SDS011;9379;52.134;11.576;2022-09-09T06:48:35;3.25;;;1.90;;
18499;SDS011;9379;52.134;11.576;2022-09-09T06:51:02;3.25;;;1.45;;
18499;SDS011;9379;52.134;11.576;2022-09-09T06:53:30;3.53;;;1.50;;
18499;SDS011;9379;52.134;11.576;2022-09-09T06:56:13;2.90;;;1.33;;
18499;SDS011;9379;52.134;11.576;2022-09-09T06:58:48;1.88;;;1.30;;
18499;SDS011;9379;52.134;11.576;2022-09-09T07:01:17;1.83;;;1.73;;
18499;SDS011;9379;52.134;11.576;2022-09-09T07:03:46;1.08;;;1.08;;
18499;SDS011;9379;52.134;11.576;2022-09-09T07:06:17;5.85;;;1.65;;
18499;SDS011;9379;52.134;11.576;2022-09-09T07:08:50;2.55;;;1.55;;
18499;SDS011;9379;52.134;11.576;2022-09-09T07:11:25;1.40;;;1.25;;
18499;SDS011;9379;52.134;11.576;2022-09-09T07:13:55;1.80;;;1.58;;
18499;SDS011;9379;52.134;11.576;2022-09-09T07:16:24;1.48;;;1.17;;
18499;SDS011;9379;52.134;11.576;2022-09-09T07:18:56;1.30;;;1.20;;
18499;SDS011;9379;52.134;11.576;2022-09-09T07:21:24;1.77;;;1.35;;
18499;SDS011;9379;52.134;11.576;2022-09-09T07:23:52;1.83;;;1.05;;
18499;SDS011;9379;52.134;11.576;2022-09-09T07:26:20;1.25;;;1.10;;
18499;SDS011;9379;52.134;11.576;2022-09-09T07:28:50;2.08;;;1.30;;
18499;SDS011;9379;52.134;11.576;2022-09-09T07:31:18;3.90;;;1.23;;
18499;SDS011;9379;52.134;11.576;2022-09-09T07:33:52;1.52;;;1.00;;
18499;SDS011;9379;52.134;11.576;2022-09-09T07:36:19;1.80;;;1.23;;
18499;SDS011;9379;52.134;11.576;2022-09-09T07:38:49;6.07;;;1.83;;
18499;SDS011;9379;52.134;11.576;2022-09-09T07:41:18;1.50;;;1.08;;
18499;SDS011;9379;52.134;11.576;2022-09-09T07:43:47;0.95;;;0.95;;
18499;SDS011;9379;52.134;11.576;2022-09-09T07:46:18;1.40;;;1.20;;
18499;SDS011;9379;52.134;11.576;2022-09-09T07:48:45;1.63;;;1.20;;
18499;SDS011;9379;52.134;11.576;2022-09-09T07:51:17;1.40;;;1.30;;
18499;SDS011;9379;52.134;11.576;2022-09-09T07:53:51;1.60;;;1.35;;
18499;SDS011;9379;52.134;11.576;2022-09-09T07:56:20;1.48;;;1.05;;
18499;SDS011;9379;52.134;11.576;2022-09-09T07:58:48;1.40;;;1.30;;
18499;SDS011;9379;52.134;11.576;2022-09-09T08:01:34;2.10;;;1.67;;
18499;SDS011;9379;52.134;11.576;2022-09-09T08:04:04;3.20;;;1.23;;
18499;SDS011;9379;52.134;11.576;2022-09-09T08:06:41;1.27;;;1.10;;
18499;SDS011;9379;52.134;11.576;2022-09-09T08:09:10;3.00;;;1.17;;
18499;SDS011;9379;52.134;11.576;2022-09-09T08:11:46;2.67;;;1.13;;
18499;SDS011;9379;52.134;11.576;2022-09-09T08:14:16;1.58;;;1.13;;
18499;SDS011;9379;52.134;11.576;2022-09-09T08:16:45;1.55;;;1.33;;
18499;SDS011;9379;52.134;11.576;2022-09-09T08:19:14;1.90;;;1.33;;
18499;SDS011;9379;52.134;11.576;2022-09-09T08:21:41;1.40;;;1.30;;
18499;SDS011;9379;52.134;11.576;2022-09-09T08:24:09;1.30;;;1.02;;
18499;SDS011;9379;52.134;11.576;2022-09-09T08:26:39;3.53;;;1.63;;
18499;SDS011;9379;52.134;11.576;2022-09-09T08:29:08;3.38;;;1.23;;
18499;SDS011;9379;52.134;11.576;2022-09-09T08:31:36;4.03;;;1.70;;
18499;SDS011;9379;52.134;11.576;2022-09-09T08:34:06;1.58;;;1.48;;
18499;SDS011;9379;52.134;11.576;2022-09-09T08:36:35;1.83;;;1.23;;
18499;SDS011;9379;52.134;11.576;2022-09-09T08:39:03;3.28;;;1.88;;
18499;SDS011;9379;52.134;11.576;2022-09-09T08:41:38;4.00;;;2.40;;
18499;SDS011;9379;52.134;11.576;2022-09-09T08:44:14;8.10;;;2.95;;
18499;SDS011;9379;52.134;11.576;2022-09-09T08:46:54;7.45;;;1.83;;
18499;SDS011;9379;52.134;11.576;2022-09-09T08:49:44;3.15;;;1.45;;
18499;SDS011;9379;52.134;11.576;2022-09-09T08:52:19;3.90;;;1.63;;
18499;SDS011;9379;52.134;11.576;2022-09-09T08:54:49;3.30;;;1.00;;
18499;SDS011;9379;52.134;11.576;2022-09-09T08:57:18;1.88;;;1.70;;
18499;SDS011;9379;52.134;11.576;2022-09-09T08:59:52;7.63;;;2.65;;
18499;SDS011;9379;52.134;11.576;2022-09-09T09:02:21;10.27;;;2.20;;
18499;SDS011;9379;52.134;11.576;2022-09-09T09:04:58;6.13;;;1.75;;
18499;SDS011;9379;52.134;11.576;2022-09-09T09:07:39;1.83;;;1.38;;
18499;SDS011;9379;52.134;11.576;2022-09-09T09:10:17;3.72;;;1.38;;
18499;SDS011;9379;52.134;11.576;2022-09-09T09:12:52;1.38;;;1.23;;
18499;SDS011;9379;52.134;11.576;2022-09-09T09:15:21;1.50;;;1.23;;
18499;SDS011;9379;52.134;11.576;2022-09-09T09:17:49;0.80;;;0.77;;
18499;SDS011;9379;52.134;11.576;2022-09-09T09:20:18;2.22;;;0.93;;
18499;SDS011;9379;52.134;11.576;2022-09-09T09:22:52;5.80;;;1.33;;
18499;SDS011;9379;52.134;11.576;2022-09-09T09:25:24;8.32;;;2.42;;
18499;SDS011;9379;52.134;11.576;2022-09-09T09:27:58;1.20;;;1.10;;
18499;SDS011;9379;52.134;11.576;2022-09-09T09:30:28;6.07;;;1.60;;
18499;SDS011;9379;52.134;11.576;2022-09-09T09:33:00;6.32;;;1.80;;
18499;SDS011;9379;52.134;11.576;2022-09-09T09:35:33;2.38;;;1.50;;
18499;SDS011;9379;52.134;11.576;2022-09-09T09:38:00;2.53;;;1.50;;
18499;SDS011;9379;52.134;11.576;2022-09-09T09:40:28;1.73;;;1.50;;
18499;SDS011;9379;52.134;11.576;2022-09-09T09:42:56;1.52;;;1.05;;
18499;SDS011;9379;52.134;11.576;2022-09-09T09:45:26;1.88;;;1.23;;
18499;SDS011;9379;52.134;11.576;2022-09-09T09:48:00;3.40;;;1.48;;
18499;SDS011;9379;52.134;11.576;2022-09-09T09:50:28;3.25;;;1.92;;
18499;SDS011;9379;52.134;11.576;2022-09-09T09:52:58;8.10;;;1.70;;
18499;SDS011;9379;52.134;11.576;2022-09-09T09:55:27;3.65;;;1.10;;
18499;SDS011;9379;52.134;11.576;2022-09-09T09:58:00;1.90;;;1.20;;
18499;SDS011;9379;52.134;11.576;2022-09-09T10:00:29;2.22;;;1.30;;
18499;SDS011;9379;52.134;11.576;2022-09-09T10:02:55;2.05;;;1.10;;
18499;SDS011;9379;52.134;11.576;2022-09-09T10:05:23;1.17;;;1.02;;
18499;SDS011;9379;52.134;11.576;2022-09-09T10:08:02;1.98;;;0.85;;
18499;SDS011;9379;52.134;11.576;2022-09-09T10:10:36;2.80;;;1.30;;
18499;SDS011;9379;52.134;11.576;2022-09-09T10:13:18;1.90;;;1.42;;
18499;SDS011;9379;52.134;11.576;2022-09-09T10:15:52;4.00;;;1.85;;
18499;SDS011;9379;52.134;11.576;2022-09-09T10:18:36;1.27;;;1.15;;
18499;SDS011;9379;52.134;11.576;2022-09-09T10:24:15;9.00;;;2.15;;
18499;SDS011;9379;52.134;11.576;2022-09-09T10:27:04;3.22;;;0.70;;
18499;SDS011;9379;52.134;11.576;2022-09-09T10:32:37;3.88;;;1.50;;
18499;SDS011;9379;52.134;11.576;2022-09-09T10:35:12;2.10;;;1.27;;
18499;SDS011;9379;52.134;11.576;2022-09-09T10:37:52;1.35;;;1.17;;
18499;SDS011;9379;52.134;11.576;2022-09-09T10:40:33;1.50;;;1.30;;
18499;SDS011;9379;52.134;11.576;2022-09-09T10:43:09;3.55;;;1.73;;
18499;SDS011;9379;52.134;11.576;2022-09-09T10:45:47;4.18;;;0.95;;
18499;SDS011;9379;52.134;11.576;2022-09-09T10:48:26;2.75;;;1.05;;
18499;SDS011;9379;52.134;11.576;2022-09-09T10:51:01;1.13;;;1.00;;
18499;SDS011;9379;52.134;11.576;2022-09-09T10:53:43;2.03;;;1.85;;
18499;SDS011;9379;52.134;11.576;2022-09-09T10:56:20;5.97;;;1.50;;
18499;SDS011;9379;52.134;11.576;2022-09-09T10:58:51;2.72;;;0.80;;
18499;SDS011;9379;52.134;11.576;2022-09-09T11:01:24;4.22;;;1.92;;
18499;SDS011;9379;52.134;11.576;2022-09-09T11:03:56;2.05;;;1.45;;
18499;SDS011;9379;52.134;11.576;2022-09-09T11:06:29;3.40;;;0.80;;
18499;SDS011;9379;52.134;11.576;2022-09-09T11:09:00;4.03;;;1.67;;
18499;SDS011;9379;52.134;11.576;2022-09-09T11:11:32;6.22;;;1.33;;
18499;SDS011;9379;52.134;11.576;2022-09-09T11:14:03;2.10;;;1.08;;
18499;SDS011;9379;52.134;11.576;2022-09-09T11:16:39;4.25;;;1.35;;
18499;SDS011;9379;52.134;11.576;2022-09-09T11:19:11;3.65;;;1.63;;
18499;SDS011;9379;52.134;11.576;2022-09-09T11:21:44;1.65;;;0.88;;
18499;SDS011;9379;52.134;11.576;2022-09-09T11:24:14;2.75;;;0.80;;
18499;SDS011;9379;52.134;11.576;2022-09-09T11:26:49;2.25;;;1.48;;
18499;SDS011;9379;52.134;11.576;2022-09-09T11:32:27;1.23;;;1.13;;
18499;SDS011;9379;52.134;11.576;2022-09-09T11:35:09;2.60;;;1.40;;
18499;SDS011;9379;52.134;11.576;2022-09-09T11:37:57;1.25;;;1.15;;
18499;SDS011;9379;52.134;11.576;2022-09-09T11:40:35;7.25;;;1.48;;
18499;SDS011;9379;52.134;11.576;2022-09-09T11:43:04;0.90;;;0.90;;
18499;SDS011;9379;52.134;11.576;2022-09-09T11:45:38;1.90;;;1.10;;
18499;SDS011;9379;52.134;11.576;2022-09-09T11:48:20;7.95;;;2.10;;
18499;SDS011;9379;52.134;11.576;2022-09-09T11:50:57;1.38;;;1.27;;
18499;SDS011;9379;52.134;11.576;2022-09-09T11:53:25;1.27;;;0.93;;
18499;SDS011;9379;52.134;11.576;2022-09-09T11:59:06;1.65;;;1.52;;
18499;SDS011;9379;52.134;11.576;2022-09-09T12:01:48;0.60;;;0.60;;
18499;SDS011;9379;52.134;11.576;2022-09-09T12:04:21;2.00;;;1.30;;
18499;SDS011;9379;52.134;11.576;2022-09-09T12:06:57;2.03;;;0.88;;
18499;SDS011;9379;52.134;11.576;2022-09-09T12:09:28;4.30;;;1.13;;
18499;SDS011;9379;52.134;11.576;2022-09-09T12:12:07;2.38;;;1.25;;
18499;SDS011;9379;52.134;11.576;2022-09-09T12:14:56;0.68;;;0.55;;
18499;SDS011;9379;52.134;11.576;2022-09-09T12:17:41;0.65;;;0.30;;
18499;SDS011;9379;52.134;11.576;2022-09-09T12:20:11;6.55;;;1.83;;
18499;SDS011;9379;52.134;11.576;2022-09-09T12:22:43;4.28;;;1.33;;
18499;SDS011;9379;52.134;11.576;2022-09-09T12:25:28;2.90;;;1.48;;
18499;SDS011;9379;52.134;11.576;2022-09-09T12:28:00;1.02;;;0.73;;
18499;SDS011;9379;52.134;11.576;2022-09-09T12:30:35;2.65;;;0.93;;
18499;SDS011;9379;52.134;11.576;2022-09-09T12:33:11;1.85;;;1.45;;
18499;SDS011;9379;52.134;11.576;2022-09-09T12:35:40;1.55;;;0.90;;
18499;SDS011;9379;52.134;11.576;2022-09-09T12:38:12;1.02;;;0.75;;
18499;SDS011;9379;52.134;11.576;2022-09-09T12:40:55;1.60;;;0.63;;
18499;SDS011;9379;52.134;11.576;2022-09-09T12:43:25;2.50;;;1.08;;
18499;SDS011;9379;52.134;11.576;2022-09-09T12:45:56;0.75;;;0.55;;
18499;SDS011;9379;52.134;11.576;2022-09-09T12:48:34;0.95;;;0.70;;
18499;SDS011;9379;52.134;11.576;2022-09-09T12:51:14;2.35;;;1.40;;
18499;SDS011;9379;52.134;11.576;2022-09-09T12:53:47;0.82;;;0.82;;
18499;SDS011;9379;52.134;11.576;2022-09-09T12:56:18;1.58;;;0.98;;
18499;SDS011;9379;52.134;11.576;2022-09-09T12:58:53;3.45;;;0.80;;
18499;SDS011;9379;52.134;11.576;2022-09-09T13:01:28;3.53;;;1.33;;
18499;SDS011;9379;52.134;11.576;2022-09-09T13:03:59;2.88;;;0.80;;
18499;SDS011;9379;52.134;11.576;2022-09-09T13:06:37;0.68;;;0.68;;
18499;SDS011;9379;52.134;11.576;2022-09-09T13:09:03;2.40;;;1.60;;
18499;SDS011;9379;52.134;11.576;2022-09-09T13:11:30;5.60;;;1.98;;
18499;SDS011;9379;52.134;11.576;2022-09-09T13:14:03;1.77;;;0.55;;
18499;SDS011;9379;52.134;11.576;2022-09-09T13:16:55;1.58;;;1.33;;
18499;SDS011;9379;52.134;11.576;2022-09-09T13:19:22;3.83;;;1.20;;
18499;SDS011;9379;52.134;11.576;2022-09-09T13:21:53;2.17;;;1.20;;
18499;SDS011;9379;52.134;11.576;2022-09-09T13:24:28;3.28;;;1.42;;
18499;SDS011;9379;52.134;11.576;2022-09-09T13:26:57;2.58;;;1.38;;
18499;SDS011;9379;52.134;11.576;2022-09-09T13:29:27;1.33;;;0.60;;
18499;SDS011;9379;52.134;11.576;2022-09-09T13:31:55;4.22;;;2.13;;
18499;SDS011;9379;52.134;11.576;2022-09-09T13:34:32;1.15;;;0.70;;
18499;SDS011;9379;52.134;11.576;2022-09-09T13:37:00;3.20;;;1.38;;
18499;SDS011;9379;52.134;11.576;2022-09-09T13:39:31;1.35;;;0.80;;
18499;SDS011;9379;52.134;11.576;2022-09-09T13:41:59;1.00;;;0.52;;
18499;SDS011;9379;52.134;11.576;2022-09-09T13:44:28;2.20;;;0.60;;
18499;SDS011;9379;52.134;11.576;2022-09-09T13:47:03;3.60;;;1.08;;
18499;SDS011;9379;52.134;11.576;2022-09-09T13:49:31;1.17;;;1.08;;
18499;SDS011;9379;52.134;11.576;2022-09-09T13:52:05;3.70;;;0.73;;
18499;SDS011;9379;52.134;11.576;2022-09-09T13:54:36;4.00;;;0.70;;
18499;SDS011;9379;52.134;11.576;2022-09-09T13:57:04;0.50;;;0.50;;
18499;SDS011;9379;52.134;11.576;2022-09-09T13:59:40;3.78;;;0.82;;
18499;SDS011;9379;52.134;11.576;2022-09-09T14:02:08;0.68;;;0.50;;
18499;SDS011;9379;52.134;11.576;2022-09-09T14:04:35;0.43;;;0.40;;
18499;SDS011;9379;52.134;11.576;2022-09-09T14:07:01;0.93;;;0.93;;
18499;SDS011;9379;52.134;11.576;2022-09-09T14:09:29;1.85;;;0.98;;
18499;SDS011;9379;52.134;11.576;2022-09-09T14:11:56;1.20;;;0.60;;
18499;SDS011;9379;52.134;11.576;2022-09-09T14:14:23;1.05;;;0.68;;
18499;SDS011;9379;52.134;11.576;2022-09-09T14:16:50;1.45;;;0.88;;
18499;SDS011;9379;52.134;11.576;2022-09-09T14:19:18;11.25;;;2.30;;
18499;SDS011;9379;52.134;11.576;2022-09-09T14:21:45;2.25;;;0.60;;
18499;SDS011;9379;52.134;11.576;2022-09-09T14:24:12;2.97;;;0.73;;
18499;SDS011;9379;52.134;11.576;2022-09-09T14:26:39;0.93;;;0.82;;
18499;SDS011;9379;52.134;11.576;2022-09-09T14:29:05;1.08;;;0.70;;
18499;SDS011;9379;52.134;11.576;2022-09-09T14:31:32;1.33;;;0.55;;
18499;SDS011;9379;52.134;11.576;2022-09-09T14:33:59;0.60;;;0.60;;
18499;SDS011;9379;52.134;11.576;2022-09-09T14:36:27;3.35;;;1.55;;
18499;SDS011;9379;52.134;11.576;2022-09-09T14:38:54;1.00;;;0.90;;
18499;SDS011;9379;52.134;11.576;2022-09-09T14:41:21;0.98;;;0.77;;
18499;SDS011;9379;52.134;11.576;2022-09-09T14:43:48;1.15;;;1.05;;
18499;SDS011;9379;52.134;11.576;2022-09-09T14:46:16;2.35;;;1.20;;
18499;SDS011;9379;52.134;11.576;2022-09-09T14:48:44;2.88;;;0.80;;
18499;SDS011;9379;52.134;11.576;2022-09-09T14:51:14;2.10;;;1.17;;
18499;SDS011;9379;52.134;11.576;2022-09-09T14:53:44;1.15;;;0.77;;
18499;SDS011;9379;52.134;11.576;2022-09-09T14:56:11;0.93;;;0.45;;
18499;SDS011;9379;52.134;11.576;2022-09-09T14:58:40;1.15;;;0.60;;
18499;SDS011;9379;52.134;11.576;2022-09-09T15:01:07;0.22;;;0.22;;
18499;SDS011;9379;52.134;11.576;2022-09-09T15:03:36;1.60;;;0.60;;
18499;SDS011;9379;52.134;11.576;2022-09-09T15:06:07;0.52;;;0.52;;
18499;SDS011;9379;52.134;11.576;2022-09-09T15:08:35;1.67;;;1.25;;
18499;SDS011;9379;52.134;11.576;2022-09-09T15:11:04;0.63;;;0.63;;
18499;SDS011;9379;52.134;11.576;2022-09-09T15:13:32;0.73;;;0.65;;
18499;SDS011;9379;52.134;11.576;2022-09-09T15:16:03;2.08;;;0.82;;
18499;SDS011;9379;52.134;11.576;2022-09-09T15:18:31;3.38;;;1.02;;
18499;SDS011;9379;52.134;11.576;2022-09-09T15:20:58;1.95;;;0.80;;
18499;SDS011;9379;52.134;11.576;2022-09-09T15:23:26;2.17;;;0.68;;
18499;SDS011;9379;52.134;11.576;2022-09-09T15:26:09;1.38;;;0.82;;
18499;SDS011;9379;52.134;11.576;2022-09-09T15:28:36;1.20;;;1.08;;
18499;SDS011;9379;52.134;11.576;2022-09-09T15:31:05;1.25;;;0.52;;
18499;SDS011;9379;52.134;11.576;2022-09-09T15:33:33;1.95;;;0.75;;
18499;SDS011;9379;52.134;11.576;2022-09-09T15:36:11;1.15;;;0.60;;
18499;SDS011;9379;52.134;11.576;2022-09-09T15:38:46;3.63;;;1.02;;
18499;SDS011;9379;52.134;11.576;2022-09-09T15:55:17;1.85;;;0.93;;
18499;SDS011;9379;52.134;11.576;2022-09-09T16:02:32;0.90;;;0.70;;
18499;SDS011;9379;52.134;11.576;2022-09-09T16:08:58;0.77;;;0.77;;
18499;SDS011;9379;52.134;11.576;2022-09-09T16:11:50;5.40;;;1.20;;
18499;SDS011;9379;52.134;11.576;2022-09-09T16:18:29;0.95;;;0.65;;
18499;SDS011;9379;52.134;11.576;2022-09-09T16:36:57;1.00;;;0.40;;
18499;SDS011;9379;52.134;11.576;2022-09-09T16:39:34;1.85;;;0.65;;
18499;SDS011;9379;52.134;11.576;2022-09-09T16:42:14;0.95;;;0.82;;
18499;SDS011;9379;52.134;11.576;2022-09-09T16:45:12;1.42;;;0.40;;
18499;SDS011;9379;52.134;11.576;2022-09-09T16:48:11;1.10;;;1.02;;
18499;SDS011;9379;52.134;11.576;2022-09-09T16:50:49;2.83;;;0.90;;
18499;SDS011;9379;52.134;11.576;2022-09-09T16:54:17;3.67;;;0.90;;